Time;durP1;ratioP1;P1;durP2;ratioP2;P2;SDS_P1;SDS_P2;PMS_P1;PMS_P2;Temp;Humidity;BMP_temperature;BMP_pressure;BME280_temperature;BME280_humidity;BME280_pressure;Samples;Min_cycle;Max_cycle;Signal;HPM_P1;HPM_P2
2021/04/08 00:02:21;;;;;;;2.47;1.77;;;;;;;12.83;49.19;98916.73;1747930;79;21150;-63
2021/04/08 00:04:49;;;;;;;2.75;2.35;;;;;;;12.82;49.18;98919.08;1742281;79;21356;-64
2021/04/08 00:07:16;;;;;;;2.40;2.15;;;;;;;12.82;49.12;98919.08;1749180;79;21162;-63
2021/04/08 00:09:44;;;;;;;2.50;2.17;;;;;;;12.81;49.13;98917.45;1747066;79;21186;-63
2021/04/08 00:12:13;;;;;;;2.55;2.10;;;;;;;12.81;49.10;98916.12;1739170;81;21206;-64
2021/04/08 00:14:40;;;;;;;3.65;2.55;;;;;;;12.81;49.11;98914.27;1753731;81;21190;-63
2021/04/08 00:17:08;;;;;;;2.47;1.90;;;;;;;12.78;49.11;98916.80;1764487;81;21399;-64
2021/04/08 00:19:36;;;;;;;2.35;1.85;;;;;;;12.79;49.17;98918.45;1761514;79;21185;-63
2021/04/08 00:22:04;;;;;;;2.85;1.80;;;;;;;12.78;49.14;98927.46;1748842;81;21175;-64
2021/04/08 00:24:32;;;;;;;2.62;2.00;;;;;;;12.77;49.09;98929.02;1726029;80;21172;-63
2021/04/08 00:26:59;;;;;;;2.52;1.98;;;;;;;12.77;49.10;98935.69;1750753;81;21146;-63
2021/04/08 00:29:28;;;;;;;2.35;1.92;;;;;;;12.78;49.08;98938.64;1759412;79;21383;-64
2021/04/08 00:31:55;;;;;;;2.55;1.90;;;;;;;12.76;49.03;98933.51;1745700;81;21243;-65
2021/04/08 00:34:23;;;;;;;2.17;1.72;;;;;;;12.75;49.08;98937.21;1738225;81;21205;-63
2021/04/08 00:36:50;;;;;;;2.67;1.85;;;;;;;12.75;49.11;98939.88;1757062;81;21639;-63
2021/04/08 00:39:17;;;;;;;2.05;1.80;;;;;;;12.74;49.07;98946.22;1740481;81;21369;-63
2021/04/08 00:41:45;;;;;;;3.17;2.27;;;;;;;12.74;49.07;98952.06;1753657;81;21372;-64
2021/04/08 00:44:12;;;;;;;2.62;2.08;;;;;;;12.74;49.06;98952.06;1767214;81;21682;-64
2021/04/08 00:46:39;;;;;;;2.55;2.10;;;;;;;12.73;49.06;98954.44;1804405;77;21178;-64
2021/04/08 00:49:07;;;;;;;2.52;1.67;;;;;;;12.72;49.11;98960.25;1787625;79;21114;-62
2021/04/08 00:51:34;;;;;;;3.08;1.90;;;;;;;12.71;49.11;98957.30;1801186;79;21170;-62
2021/04/08 00:54:01;;;;;;;2.58;1.77;;;;;;;12.71;49.08;98957.78;1764340;79;21345;-64
2021/04/08 00:56:30;;;;;;;2.50;2.10;;;;;;;12.71;49.11;98963.11;1800744;79;21178;-63
2021/04/08 00:58:57;;;;;;;2.77;2.10;;;;;;;12.70;49.13;98968.96;1795509;77;21086;-64
2021/04/08 01:01:25;;;;;;;2.02;1.85;;;;;;;12.69;49.13;98971.34;1787020;77;21122;-63
2021/04/08 01:03:53;;;;;;;2.72;1.98;;;;;;;12.69;49.08;98967.83;1789331;79;21122;-62
2021/04/08 01:06:20;;;;;;;2.08;1.80;;;;;;;12.67;49.11;98969.38;1789817;77;21386;-63
2021/04/08 01:08:48;;;;;;;1.82;1.60;;;;;;;12.67;49.14;98970.72;1795362;77;21178;-62
2021/04/08 01:11:16;;;;;;;2.15;1.92;;;;;;;12.67;49.12;98971.20;1772560;78;21175;-63
2021/04/08 01:13:49;;;;;;;2.35;1.82;;;;;;;12.66;49.07;98973.05;1775328;79;21166;-64
2021/04/08 01:16:38;;;;;;;3.12;1.95;;;;;;;12.66;49.01;98974.91;1767515;78;21127;-63
2021/04/08 01:19:24;;;;;;;2.37;1.85;;;;;;;12.64;49.03;98977.77;1766497;78;21467;-62
2021/04/08 01:22:00;;;;;;;2.90;1.95;;;;;;;12.63;49.07;98976.62;1782236;79;21167;-62
2021/04/08 01:24:54;;;;;;;2.52;2.05;;;;;;;12.62;49.10;98984.33;1780239;79;21158;-63
2021/04/08 01:27:53;;;;;;;2.62;2.08;;;;;;;12.59;49.07;98979.71;1779077;78;21211;-62
2021/04/08 01:30:39;;;;;;;3.20;2.00;;;;;;;12.58;49.15;98994.04;1784327;79;21112;-62
2021/04/08 01:33:19;;;;;;;1.95;1.75;;;;;;;12.55;49.11;98993.09;1777969;79;21194;-62
2021/04/08 01:35:47;;;;;;;2.92;2.00;;;;;;;12.54;49.19;98997.31;1694638;81;21174;-62
2021/04/08 01:38:29;;;;;;;3.67;2.20;;;;;;;12.53;49.18;98998.31;1740334;81;21146;-63
2021/04/08 01:40:58;;;;;;;2.50;1.83;;;;;;;12.53;49.14;98999.12;1740013;79;21167;-63
2021/04/08 01:43:28;;;;;;;2.75;1.87;;;;;;;12.53;49.13;99003.64;1749349;79;22716;-63
2021/04/08 01:45:58;;;;;;;3.00;1.98;;;;;;;12.52;49.14;99008.16;1732499;81;21356;-63
2021/04/08 01:48:27;;;;;;;2.55;2.20;;;;;;;12.52;49.12;99009.49;1742076;79;21231;-63
2021/04/08 01:50:56;;;;;;;2.50;1.72;;;;;;;12.53;49.11;99010.30;1744864;79;21532;-63
2021/04/08 01:53:24;;;;;;;2.77;1.67;;;;;;;12.53;49.09;99018.30;1741706;81;21182;-63
2021/04/08 01:55:55;;;;;;;2.52;1.98;;;;;;;12.52;49.06;99021.48;1744065;79;21175;-62
2021/04/08 01:58:22;;;;;;;2.30;1.95;;;;;;;12.52;49.11;99018.81;1741039;81;21372;-63
2021/04/08 02:00:51;;;;;;;2.72;2.00;;;;;;;12.53;49.03;99027.63;1735631;79;21191;-62
2021/04/08 02:03:19;;;;;;;3.55;2.00;;;;;;;12.52;49.07;99032.14;1744785;81;21170;-62
2021/04/08 02:05:47;;;;;;;3.37;2.33;;;;;;;12.53;49.04;99035.62;1737572;81;21835;-64
2021/04/08 02:08:14;;;;;;;3.60;2.45;;;;;;;12.53;49.05;99035.62;1781525;77;21150;-63
2021/04/08 02:10:43;;;;;;;2.30;2.10;;;;;;;12.53;49.00;99043.61;1773676;78;21174;-62
2021/04/08 02:13:13;;;;;;;2.37;2.17;;;;;;;12.54;49.02;99058.59;1792760;78;21611;-63
2021/04/08 02:15:43;;;;;;;3.17;2.17;;;;;;;12.52;48.96;99064.11;1775769;78;21146;-63
2021/04/08 02:18:16;;;;;;;3.22;2.05;;;;;;;12.52;49.04;99060.11;1777084;78;21186;-63
2021/04/08 02:20:43;;;;;;;2.60;1.92;;;;;;;12.52;48.98;99061.44;1784851;77;22146;-64
2021/04/08 02:23:12;;;;;;;2.55;2.08;;;;;;;12.51;48.93;99066.96;1785505;79;21265;-64
2021/04/08 02:25:41;;;;;;;2.50;2.00;;;;;;;12.51;48.92;99074.44;1757615;79;21178;-63
2021/04/08 02:28:10;;;;;;;3.00;2.10;;;;;;;12.51;48.92;99079.77;1748064;79;21178;-63
2021/04/08 02:30:46;;;;;;;2.40;2.12;;;;;;;12.51;48.94;99078.95;1779314;77;21179;-63
2021/04/08 02:33:28;;;;;;;2.02;1.50;;;;;;;12.50;48.93;99079.98;1772005;79;21139;-63
2021/04/08 02:35:56;;;;;;;2.47;2.02;;;;;;;12.49;48.90;99084.98;1777214;78;21394;-63
2021/04/08 02:38:26;;;;;;;3.45;2.40;;;;;;;12.48;48.92;99090.02;1784655;78;21170;-64
2021/04/08 02:40:55;;;;;;;1.95;1.75;;;;;;;12.48;48.91;99087.35;1769747;79;21578;-63
2021/04/08 02:43:25;;;;;;;2.72;2.40;;;;;;;12.48;48.95;99090.83;1771325;78;21118;-64
2021/04/08 02:45:55;;;;;;;2.83;2.08;;;;;;;12.47;48.95;99095.83;1787895;79;21150;-64
2021/04/08 02:48:22;;;;;;;2.42;2.02;;;;;;;12.46;48.92;99102.20;1785612;77;22088;-63
2021/04/08 02:50:54;;;;;;;2.85;2.17;;;;;;;12.46;48.92;99104.86;1765753;78;21147;-64
2021/04/08 02:53:46;;;;;;;2.20;1.80;;;;;;;12.46;48.97;99110.19;1777475;79;21595;-64
2021/04/08 02:56:40;;;;;;;2.52;2.08;;;;;;;12.45;48.94;99108.53;1780272;78;21252;-64
2021/04/08 02:59:24;;;;;;;3.15;2.22;;;;;;;12.43;48.95;99115.08;1771864;77;21162;-63
2021/04/08 03:02:00;;;;;;;3.12;1.90;;;;;;;12.41;48.96;99122.45;1789241;78;21404;-62
2021/04/08 03:04:27;;;;;;;3.55;2.50;;;;;;;12.40;48.92;99122.97;1782171;79;21182;-63
2021/04/08 03:06:55;;;;;;;2.80;2.08;;;;;;;12.38;48.99;99136.95;1792697;79;21170;-62
2021/04/08 03:09:34;;;;;;;2.77;2.25;;;;;;;12.38;48.99;99142.28;1776391;77;21202;-65
2021/04/08 03:12:09;;;;;;;2.30;2.10;;;;;;;12.37;48.96;99136.14;1768095;78;21111;-63
2021/04/08 03:14:44;;;;;;;;;;;;;;;12.37;48.93;99145.47;1774454;78;21526;-62
2021/04/08 03:17:13;;;;;;;2.87;2.15;;;;;;;12.37;48.95;99154.78;1782956;77;20252;-63
2021/04/08 03:19:43;;;;;;;2.52;2.15;;;;;;;12.29;49.07;99155.45;1773585;77;21182;-64
2021/04/08 03:22:10;;;;;;;2.90;2.17;;;;;;;12.29;49.11;99154.13;1774188;77;21485;-63
2021/04/08 03:24:37;;;;;;;3.35;2.17;;;;;;;12.30;49.08;99161.08;1781995;78;21170;-62
2021/04/08 03:27:06;;;;;;;4.35;2.72;;;;;;;12.30;49.01;99163.23;1771120;79;21195;-63
2021/04/08 03:29:33;;;;;;;2.90;1.98;;;;;;;12.30;49.00;99160.56;1777511;78;22064;-62
2021/04/08 03:32:01;;;;;;;5.95;2.55;;;;;;;12.30;48.97;99167.22;1779160;78;21201;-62
2021/04/08 03:34:28;;;;;;;3.80;2.70;;;;;;;12.31;48.98;99174.21;1778008;77;21154;-63
2021/04/08 03:36:56;;;;;;;2.27;1.95;;;;;;;12.30;49.03;99173.88;1785575;79;21587;-63
2021/04/08 03:39:24;;;;;;;4.12;2.52;;;;;;;12.32;48.96;99177.69;1782634;77;21513;-62
2021/04/08 03:41:51;;;;;;;4.50;2.42;;;;;;;12.32;48.99;99177.69;1777579;79;21149;-63
2021/04/08 03:44:19;;;;;;;2.75;2.33;;;;;;;12.32;48.89;99183.02;1771900;79;21111;-65
2021/04/08 03:46:47;;;;;;;3.12;2.47;;;;;;;12.32;48.91;99189.19;1777580;79;21177;-62
2021/04/08 03:49:15;;;;;;;2.62;2.25;;;;;;;12.32;48.91;99193.19;1774804;79;21165;-62
2021/04/08 03:51:43;;;;;;;3.58;2.30;;;;;;;12.33;48.92;99198.00;1773607;78;22072;-63
2021/04/08 03:54:12;;;;;;;2.65;2.37;;;;;;;12.32;48.90;99200.33;1735028;79;21178;-63
2021/04/08 03:56:44;;;;;;;3.33;2.42;;;;;;;12.32;48.85;99199.84;1780425;77;21591;-62
2021/04/08 03:59:12;;;;;;;3.62;2.45;;;;;;;12.32;48.92;99198.52;1780032;77;21182;-64
2021/04/08 04:01:40;;;;;;;3.02;2.72;;;;;;;12.32;48.85;99205.66;1777937;78;21138;-63
2021/04/08 04:04:10;;;;;;;3.15;2.45;;;;;;;12.33;48.85;99204.66;1760270;78;21504;-63
2021/04/08 04:06:41;;;;;;;3.52;2.37;;;;;;;12.33;48.85;99205.47;1772522;79;21173;-62
2021/04/08 04:09:10;;;;;;;3.27;2.65;;;;;;;12.34;48.87;99207.61;1791214;78;21063;-63
2021/04/08 04:11:42;;;;;;;3.58;2.80;;;;;;;12.34;48.85;99210.28;1798249;78;21165;-63
2021/04/08 04:14:14;;;;;;;3.10;2.52;;;;;;;12.34;48.89;99219.60;1810770;77;21510;-63
2021/04/08 04:16:44;;;;;;;3.70;2.75;;;;;;;12.35;48.88;99218.60;1783631;78;22096;-62
2021/04/08 04:19:13;;;;;;;3.92;3.22;;;;;;;12.35;48.86;99223.41;1801440;77;21173;-63
2021/04/08 04:21:40;;;;;;;3.02;2.40;;;;;;;12.36;48.89;99226.89;1802140;78;21157;-62
2021/04/08 04:24:08;;;;;;;3.02;2.67;;;;;;;12.35;48.87;99216.75;1816193;77;21165;-62
2021/04/08 04:26:35;;;;;;;2.95;2.42;;;;;;;12.36;48.87;99223.74;1804629;77;21545;-63
2021/04/08 04:29:04;;;;;;;3.95;2.58;;;;;;;12.36;48.88;99228.22;1798345;78;21189;-62
2021/04/08 04:31:38;;;;;;;3.12;2.45;;;;;;;12.38;48.78;99229.70;1808039;78;21129;-61
2021/04/08 04:34:06;;;;;;;4.03;2.70;;;;;;;12.37;48.79;99232.03;1804752;77;21727;-62
2021/04/08 04:36:33;;;;;;;3.98;2.50;;;;;;;12.36;48.80;99238.39;1808216;78;21121;-62
2021/04/08 04:39:02;;;;;;;2.95;2.27;;;;;;;12.37;48.71;99229.89;1803671;78;21625;-62
2021/04/08 04:41:30;;;;;;;3.35;2.80;;;;;;;12.37;48.65;99245.35;1804615;78;21355;-64
2021/04/08 04:43:57;;;;;;;4.15;3.27;;;;;;;12.39;48.62;99248.64;1801830;78;21192;-63
2021/04/08 04:46:24;;;;;;;2.92;2.62;;;;;;;12.39;48.63;99249.98;1803694;77;21094;-64
2021/04/08 04:48:52;;;;;;;3.58;2.45;;;;;;;12.41;48.63;99252.97;1818961;77;21534;-62
2021/04/08 04:51:20;;;;;;;3.58;2.72;;;;;;;12.41;48.68;99252.45;1818102;77;21133;-63
2021/04/08 04:53:47;;;;;;;3.27;2.72;;;;;;;12.42;48.68;99250.12;1814256;77;21355;-62
2021/04/08 04:56:14;;;;;;;3.67;2.80;;;;;;;12.44;48.64;99249.91;1759589;80;21177;-63
2021/04/08 04:58:41;;;;;;;3.27;2.98;;;;;;;12.46;48.67;99257.20;1747736;79;21626;-63
2021/04/08 05:01:09;;;;;;;3.92;2.90;;;;;;;12.48;48.53;99256.52;1739107;79;21181;-62
2021/04/08 05:03:38;;;;;;;3.83;3.08;;;;;;;12.49;48.57;99260.82;1773357;78;21188;-63
2021/04/08 05:06:06;;;;;;;4.55;3.40;;;;;;;12.50;48.49;99260.63;1771219;80;21649;-64
2021/04/08 05:08:34;;;;;;;4.60;3.60;;;;;;;12.52;48.41;99264.45;1773492;80;21192;-63
2021/04/08 05:11:02;;;;;;;4.65;3.90;;;;;;;12.53;48.36;99272.73;1754473;80;21201;-63
2021/04/08 05:13:29;;;;;;;4.53;3.42;;;;;;;12.55;48.37;99273.37;1749683;79;21181;-62
2021/04/08 05:15:58;;;;;;;3.92;2.90;;;;;;;12.57;48.37;99279.33;1740511;79;21157;-62
2021/04/08 05:18:25;;;;;;;4.60;3.52;;;;;;;12.59;48.30;99271.96;1741538;79;21201;-62
2021/04/08 05:20:52;;;;;;;3.72;3.25;;;;;;;12.61;48.29;99267.78;1748899;81;21201;-62
2021/04/08 05:23:20;;;;;;;3.67;3.20;;;;;;;12.62;48.20;99266.77;1755187;80;21673;-66
2021/04/08 05:25:47;;;;;;;4.15;3.10;;;;;;;12.65;48.13;99275.21;1754919;80;21110;-64
2021/04/08 05:28:15;;;;;;;4.37;3.65;;;;;;;12.66;48.12;99274.70;1757823;81;21135;-65
2021/04/08 05:30:42;;;;;;;4.28;3.47;;;;;;;12.68;48.08;99278.80;1721010;81;21229;-63
2021/04/08 05:33:11;;;;;;;4.97;3.83;;;;;;;12.70;47.96;99281.28;1727460;81;21384;-65
2021/04/08 05:35:38;;;;;;;5.30;3.55;;;;;;;12.71;48.00;99289.09;1731046;81;21149;-64
2021/04/08 05:38:06;;;;;;;4.50;3.50;;;;;;;12.73;48.04;99291.58;1747019;80;21175;-65
2021/04/08 05:40:33;;;;;;;5.97;4.60;;;;;;;12.73;47.96;99293.72;1746832;81;21686;-64
2021/04/08 05:43:01;;;;;;;4.45;3.77;;;;;;;12.75;47.95;99293.53;1734180;80;22048;-63
2021/04/08 05:45:31;;;;;;;4.87;3.47;;;;;;;12.76;47.92;99293.31;1737043;79;21147;-63
2021/04/08 05:47:58;;;;;;;4.37;3.70;;;;;;;12.76;47.89;99300.50;1732853;81;21203;-63
2021/04/08 05:50:26;;;;;;;4.45;3.72;;;;;;;12.76;47.84;99297.31;1740636;79;21239;-63
2021/04/08 05:52:53;;;;;;;4.78;3.30;;;;;;;12.78;47.89;99299.28;1736537;80;21603;-64
2021/04/08 05:55:21;;;;;;;4.87;3.85;;;;;;;12.80;47.79;99304.42;1782465;77;21150;-63
2021/04/08 05:57:48;;;;;;;3.72;3.33;;;;;;;12.81;47.81;99308.75;1781636;79;21190;-63
2021/04/08 06:00:17;;;;;;;5.03;3.60;;;;;;;12.83;47.73;99313.89;1788850;78;21198;-64
2021/04/08 06:02:44;;;;;;;6.65;4.33;;;;;;;12.84;47.71;99318.19;1786941;79;21595;-64
2021/04/08 06:05:13;;;;;;;4.90;3.42;;;;;;;12.86;47.70;99318.82;1779255;77;21159;-64
2021/04/08 06:07:43;;;;;;;4.40;3.40;;;;;;;12.88;47.68;99323.45;1785771;78;21167;-64
2021/04/08 06:10:13;;;;;;;4.22;3.72;;;;;;;12.89;47.66;99319.78;1790765;78;21181;-64
2021/04/08 06:12:42;;;;;;;4.55;3.62;;;;;;;12.90;47.61;99326.26;1785567;78;21182;-64
2021/04/08 06:15:11;;;;;;;5.37;3.72;;;;;;;12.92;47.59;99329.55;1779766;79;21193;-62
2021/04/08 06:17:40;;;;;;;4.50;3.45;;;;;;;12.95;47.54;99329.15;1781875;78;21679;-64
2021/04/08 06:20:11;;;;;;;4.87;4.08;;;;;;;12.98;47.52;99331.44;1780709;79;21229;-64
2021/04/08 06:22:40;;;;;;;3.70;3.17;;;;;;;13.00;47.68;99333.92;1780173;79;21186;-64
2021/04/08 06:25:09;;;;;;;4.30;3.67;;;;;;;13.03;47.75;99337.52;1779168;77;21163;-66
2021/04/08 06:27:36;;;;;;;5.22;4.05;;;;;;;13.06;47.77;99341.14;1801751;77;21079;-64
2021/04/08 06:30:07;;;;;;;4.97;3.83;;;;;;;13.08;47.75;99340.43;1785840;78;21139;-64
2021/04/08 06:32:34;;;;;;;5.92;4.17;;;;;;;13.12;47.71;99347.02;1778479;77;21370;-64
2021/04/08 06:35:02;;;;;;;4.60;3.47;;;;;;;13.15;47.63;99351.13;1787200;79;21592;-64
2021/04/08 06:37:30;;;;;;;4.40;3.83;;;;;;;13.17;47.62;99350.42;1775682;77;21174;-64
2021/04/08 06:39:57;;;;;;;5.12;3.95;;;;;;;13.20;47.59;99349.23;1788429;78;21202;-62
2021/04/08 06:42:24;;;;;;;3.92;3.27;;;;;;;13.23;47.52;99360.83;1782318;78;21206;-62
2021/04/08 06:44:53;;;;;;;4.65;3.75;;;;;;;13.25;47.46;99363.64;1780058;79;21733;-62
2021/04/08 06:48:03;;;;;;;5.00;3.72;;;;;;;13.28;47.42;99365.90;1790102;77;21213;-64
2021/04/08 06:50:37;;;;;;;4.42;3.60;;;;;;;13.31;47.42;99359.41;1774523;77;21622;-62
2021/04/08 06:53:06;;;;;;;4.50;3.42;;;;;;;13.31;47.42;99364.73;1789320;79;21142;-63
2021/04/08 06:55:34;;;;;;;4.33;3.90;;;;;;;13.34;47.39;99369.66;1775375;77;21094;-66
2021/04/08 06:58:05;;;;;;;4.15;3.58;;;;;;;13.37;47.35;99380.77;1783665;77;21387;-63
2021/04/08 07:00:34;;;;;;;4.03;3.52;;;;;;;13.40;47.45;99386.22;1777494;79;21650;-63
2021/04/08 07:03:04;;;;;;;5.17;4.22;;;;;;;13.43;47.38;99383.17;1787397;77;21147;-64
2021/04/08 07:05:32;;;;;;;4.35;3.95;;;;;;;13.46;47.38;99390.80;1788948;78;21154;-65
2021/04/08 07:07:59;;;;;;;5.37;4.35;;;;;;;13.49;47.37;99389.06;1722014;80;21205;-64
2021/04/08 07:10:27;;;;;;;4.60;4.10;;;;;;;13.54;47.43;99394.64;1733077;81;21499;-65
2021/04/08 07:12:57;;;;;;;4.70;3.90;;;;;;;13.57;47.39;99392.08;1809674;78;21149;-64
2021/04/08 07:15:24;;;;;;;4.65;3.92;;;;;;;13.61;47.49;99398.67;1801379;77;21122;-63
2021/04/08 07:17:52;;;;;;;5.05;3.92;;;;;;;13.65;47.46;99401.78;1794592;78;22049;-64
2021/04/08 07:20:20;;;;;;;5.47;4.00;;;;;;;13.68;47.36;99398.21;1796604;77;21149;-62
2021/04/08 07:22:48;;;;;;;5.17;4.05;;;;;;;13.71;47.28;99404.99;1722491;81;22303;-63
2021/04/08 07:25:21;;;;;;;4.10;3.70;;;;;;;13.75;47.26;99405.75;1799927;78;21169;-63
2021/04/08 07:27:48;;;;;;;;;;;;;;;13.77;47.18;99393.52;1799461;77;21566;-64
2021/04/08 07:30:20;;;;;;;4.22;3.55;;;;;;;13.81;47.17;99405.97;1796958;77;21275;-61
2021/04/08 07:32:59;;;;;;;4.60;4.10;;;;;;;13.78;47.22;99407.72;1730020;81;21074;-63
2021/04/08 07:35:40;;;;;;;6.17;4.28;;;;;;;13.80;47.25;99408.34;1800698;78;21358;-64
2021/04/08 07:38:09;;;;;;;5.12;4.17;;;;;;;13.83;47.23;99406.11;1803909;78;21106;-64
2021/04/08 07:40:36;;;;;;;4.15;3.75;;;;;;;13.87;47.25;99413.19;1803424;77;21165;-64
2021/04/08 07:43:14;;;;;;;4.35;3.95;;;;;;;13.91;47.20;99420.63;1800875;78;21173;-63
2021/04/08 07:45:41;;;;;;;3.90;3.50;;;;;;;13.95;47.13;99422.39;1803186;78;21197;-64
2021/04/08 07:48:09;;;;;;;5.33;4.28;;;;;;;13.96;47.14;99427.54;1804052;78;21157;-66
2021/04/08 07:50:39;;;;;;;4.08;3.67;;;;;;;14.00;47.15;99428.46;1804507;78;21217;-65
2021/04/08 07:53:06;;;;;;;4.08;3.65;;;;;;;14.02;47.01;99429.90;1792899;78;21147;-66
2021/04/08 07:55:36;;;;;;;4.72;4.17;;;;;;;14.05;46.97;99436.72;1794236;78;21150;-65
2021/04/08 07:58:13;;;;;;;5.53;4.30;;;;;;;14.08;46.98;99445.65;1797864;78;21597;-67
2021/04/08 08:00:53;;;;;;;4.33;3.55;;;;;;;14.11;46.97;99438.59;1798527;78;21171;-65
2021/04/08 08:03:26;;;;;;;3.80;3.35;;;;;;;14.14;47.16;99445.70;1794459;77;21160;-66
2021/04/08 08:08:39;;;;;;;5.15;4.62;;;;;;;14.25;47.28;99447.48;1804587;79;28308;-66
2021/04/08 08:11:10;;;;;;;4.85;3.98;;;;;;;14.23;47.20;99451.68;1777844;80;21167;-66
2021/04/08 08:13:51;;;;;;;5.03;4.47;;;;;;;14.26;47.19;99457.16;1810744;78;21004;-62
2021/04/08 08:16:26;;;;;;;5.12;4.15;;;;;;;14.28;47.28;99455.11;1806720;78;21571;-62
2021/04/08 08:18:54;;;;;;;4.50;4.10;;;;;;;14.31;47.24;99455.54;1785617;80;21596;-63
2021/04/08 08:21:36;;;;;;;3.62;3.33;;;;;;;14.34;47.31;99451.63;1801470;79;21060;-63
2021/04/08 08:24:09;;;;;;;4.37;3.98;;;;;;;14.35;47.30;99454.11;1794497;79;21174;-62
2021/04/08 08:26:42;;;;;;;3.98;3.58;;;;;;;14.39;47.20;99461.72;1774681;79;21237;-64
2021/04/08 08:29:19;;;;;;;4.35;3.52;;;;;;;14.42;47.22;99457.31;1765273;79;21198;-63
2021/04/08 08:32:03;;;;;;;4.33;3.92;;;;;;;14.42;47.29;99456.80;1761255;79;21622;-62
2021/04/08 08:34:39;;;;;;;4.12;3.70;;;;;;;14.45;47.18;99452.92;1767856;79;21324;-64
2021/04/08 08:37:10;;;;;;;4.90;3.83;;;;;;;14.46;47.17;99461.23;1766167;79;21126;-64
2021/04/08 08:39:40;;;;;;;4.75;3.90;;;;;;;14.48;47.20;99463.19;1778887;79;21197;-63
2021/04/08 08:42:10;;;;;;;4.75;4.22;;;;;;;14.48;47.09;99459.18;1752919;78;21190;-65
2021/04/08 08:44:38;;;;;;;3.95;3.55;;;;;;;14.50;47.01;99456.61;1783692;79;21222;-65
2021/04/08 08:47:22;;;;;;;4.33;3.52;;;;;;;14.53;46.96;99464.24;1784338;79;21472;-65
2021/04/08 08:49:54;;;;;;;5.05;4.03;;;;;;;14.56;46.93;99463.01;1789125;78;21120;-64
2021/04/08 08:52:26;;;;;;;4.53;4.00;;;;;;;14.60;47.17;99464.80;1805709;78;21807;-64
2021/04/08 08:54:53;;;;;;;4.70;3.75;;;;;;;14.62;47.19;99466.76;1789546;79;21190;-64
2021/04/08 08:57:22;;;;;;;6.72;4.50;;;;;;;14.66;47.16;99469.34;1794028;79;21584;-62
2021/04/08 08:59:50;;;;;;;5.58;3.72;;;;;;;14.70;47.04;99474.63;1782269;78;21342;-64
2021/04/08 09:02:20;;;;;;;4.17;3.62;;;;;;;14.73;47.04;99475.02;1781329;79;21151;-63
2021/04/08 09:04:47;;;;;;;3.85;3.45;;;;;;;14.79;47.07;99476.58;1778097;80;22263;-63
2021/04/08 09:07:16;;;;;;;4.92;4.15;;;;;;;14.83;47.11;99477.83;1776287;79;21215;-64
2021/04/08 09:09:47;;;;;;;3.95;3.55;;;;;;;14.86;47.02;99478.77;1789357;80;21138;-64
2021/04/08 09:12:17;;;;;;;5.37;4.50;;;;;;;14.90;46.80;99484.02;1791862;80;21205;-72
2021/04/08 09:14:47;;;;;;;5.58;4.45;;;;;;;14.93;50.96;99444.81;1768835;80;21179;-74
2021/04/08 09:17:39;;;;;;;5.40;4.05;;;;;;;15.13;54.98;99480.97;1760113;80;21250;-74
2021/04/08 09:20:11;;;;;;;6.75;5.00;;;;;;;15.31;53.51;99476.34;1762235;80;21159;-74
2021/04/08 09:22:57;;;;;;;5.47;4.35;;;;;;;15.43;52.83;99475.21;1772615;80;21195;-76
2021/04/08 09:25:41;;;;;;;5.00;3.92;;;;;;;15.52;52.78;99484.16;1791161;78;21162;-75
2021/04/08 09:28:11;;;;;;;5.67;4.58;;;;;;;15.59;53.12;99473.47;1761900;80;21064;-74
2021/04/08 09:30:55;;;;;;;7.17;4.55;;;;;;;15.66;52.93;99474.27;1765917;80;21597;-71
2021/04/08 09:33:18;;;;;;;5.87;4.28;;;;;;;15.71;52.45;99477.67;1790101;80;21185;-73
2021/04/08 09:35:46;;;;;;;6.10;4.47;;;;;;;15.78;51.69;99480.36;1753825;80;21837;-69
2021/04/08 09:38:13;;;;;;;5.72;4.10;;;;;;;15.85;51.29;99480.66;1782190;80;21178;-69
2021/04/08 09:40:47;;;;;;;6.47;4.58;;;;;;;15.92;50.94;99492.72;1765861;80;21149;-71
2021/04/08 09:43:20;;;;;;;4.92;3.98;;;;;;;15.96;50.83;99492.60;1756863;80;21356;-74
2021/04/08 09:45:52;;;;;;;;;;;;;;;16.00;50.62;99495.69;1743630;80;21598;-75
2021/04/08 09:48:22;;;;;;;4.28;3.67;;;;;;;16.04;50.29;99492.38;1769025;80;20283;-75
2021/04/08 09:50:55;;;;;;;4.78;3.50;;;;;;;16.01;49.77;99494.16;1779947;80;21202;-74
2021/04/08 09:53:42;;;;;;;4.97;4.03;;;;;;;16.04;49.87;99496.39;1761284;80;21648;-74
2021/04/08 09:56:10;;;;;;;4.37;3.75;;;;;;;16.08;49.52;99499.48;1758723;80;21276;-73
2021/04/08 09:58:39;;;;;;;4.95;4.22;;;;;;;16.12;49.37;99493.48;1787038;80;21161;-73
2021/04/08 10:01:09;;;;;;;5.42;3.98;;;;;;;16.19;49.38;99501.52;1778561;80;21592;-75
2021/04/08 10:03:43;;;;;;;5.80;3.95;;;;;;;16.25;48.81;99500.67;1758044;80;21566;-75
2021/04/08 10:06:18;;;;;;;;;;;;;;;16.32;48.95;99495.27;1747577;80;21119;-73
2021/04/08 10:08:47;;;;;;;7.85;5.90;;;;;;;16.35;48.86;99496.20;1765159;80;20282;-73
2021/04/08 10:11:17;;;;;;;14.63;5.60;;;;;;;16.34;54.74;99458.88;1777868;80;21178;-71
2021/04/08 10:13:44;;;;;;;7.80;4.90;;;;;;;16.66;58.86;99504.02;1781507;78;21115;-73
2021/04/08 10:16:14;;;;;;;5.00;4.50;;;;;;;17.09;55.65;99500.20;1784118;79;21139;-73
2021/04/08 10:18:43;;;;;;;5.20;4.67;;;;;;;17.26;54.64;99500.48;1785060;79;21663;-70
2021/04/08 10:21:14;;;;;;;7.58;4.35;;;;;;;17.33;54.46;99489.70;1782899;80;21175;-70
2021/04/08 10:23:48;;;;;;;6.10;4.55;;;;;;;17.36;54.14;99501.86;1811078;78;21635;-72
2021/04/08 10:26:27;;;;;;;14.50;4.87;;;;;;;17.36;53.11;99499.18;1798105;79;21219;-73
2021/04/08 10:28:59;;;;;;;6.62;4.37;;;;;;;17.35;52.46;99501.05;1748200;80;21210;-74
2021/04/08 10:31:30;;;;;;;5.53;4.55;;;;;;;17.36;52.30;99508.05;1792870;79;22024;-70
2021/04/08 10:34:10;;;;;;;5.85;3.85;;;;;;;17.40;51.75;99511.13;1802969;78;21155;-70
2021/04/08 10:36:56;;;;;;;5.03;4.25;;;;;;;17.44;51.39;99503.77;1788096;79;21614;-69
2021/04/08 10:39:30;;;;;;;4.90;4.05;;;;;;;17.51;51.42;99497.52;1797552;78;21159;-70
2021/04/08 10:42:11;;;;;;;5.05;4.10;;;;;;;17.56;51.59;99507.91;1788912;79;21179;-72
2021/04/08 10:44:51;;;;;;;6.05;4.30;;;;;;;17.64;51.14;99502.78;1783151;79;21143;-68
2021/04/08 10:47:20;;;;;;;5.00;4.00;;;;;;;17.70;50.78;99495.19;1786766;79;21374;-71
2021/04/08 10:49:51;;;;;;;5.42;3.60;;;;;;;17.78;50.84;99502.14;1784674;79;21674;-67
2021/04/08 10:52:22;;;;;;;5.55;3.80;;;;;;;17.85;50.53;99501.59;1766758;79;21148;-73
2021/04/08 10:55:00;;;;;;;5.45;3.80;;;;;;;17.94;50.34;99503.45;1787210;79;21246;-72
2021/04/08 10:57:28;;;;;;;4.55;3.83;;;;;;;18.05;49.99;99496.01;1788372;79;21119;-68
2021/04/08 10:59:55;;;;;;;5.60;3.77;;;;;;;18.20;49.76;99509.91;1780244;78;22241;-70
2021/04/08 11:02:33;;;;;;;3.83;3.35;;;;;;;18.35;49.36;99502.82;1783090;80;21207;-71
2021/04/08 11:05:06;;;;;;;3.95;3.55;;;;;;;18.55;49.10;99501.75;1773725;78;21158;-70
2021/04/08 11:07:38;;;;;;;4.83;3.47;;;;;;;18.75;48.64;99500.95;1779233;78;21239;-72
2021/04/08 11:10:16;;;;;;;5.62;3.72;;;;;;;18.98;48.24;99509.67;1764082;80;21203;-68
2021/04/08 11:12:50;;;;;;;5.08;3.58;;;;;;;19.14;47.54;99509.58;1773890;80;21372;-71
2021/04/08 11:15:26;;;;;;;5.42;3.47;;;;;;;19.22;47.00;99504.39;1745825;80;21138;-71
2021/04/08 11:17:56;;;;;;;3.15;2.77;;;;;;;19.26;46.53;99504.22;1749132;81;21599;-70
2021/04/08 11:20:32;;;;;;;3.92;3.35;;;;;;;19.25;46.29;99511.98;1788336;80;21722;-67
2021/04/08 11:22:59;;;;;;;3.30;2.92;;;;;;;19.23;46.03;99508.70;1789031;80;21121;-71
2021/04/08 11:27:44;;;;;;;3.65;2.95;;;;;;;19.51;45.92;99509.92;1798421;75;23308;-72
2021/04/08 11:30:27;;;;;;;5.08;3.12;;;;;;;19.63;45.94;99514.81;1791490;79;21190;-70
2021/04/08 11:32:56;;;;;;;4.30;3.00;;;;;;;19.88;45.58;99515.16;1795507;79;21575;-69
2021/04/08 11:35:39;;;;;;;3.15;2.85;;;;;;;20.02;45.31;99516.01;1786561;79;21157;-71
2021/04/08 11:38:20;;;;;;;3.10;2.72;;;;;;;20.10;45.11;99513.48;1788217;79;21150;-70
2021/04/08 11:41:03;;;;;;;3.90;2.90;;;;;;;20.07;44.80;99518.52;1799533;79;21120;-69
2021/04/08 11:43:51;;;;;;;3.90;3.08;;;;;;;19.99;44.59;99528.63;1788541;79;21594;-68
2021/04/08 11:46:31;;;;;;;3.47;3.00;;;;;;;19.88;44.50;99534.02;1797202;79;23263;-69
2021/04/08 11:48:59;;;;;;;3.30;2.77;;;;;;;19.75;44.50;99537.76;1775639;79;21055;-68
2021/04/08 11:51:31;;;;;;;4.10;3.22;;;;;;;19.65;44.52;99545.85;1779822;79;21558;-69
2021/04/08 11:54:16;;;;;;;4.03;2.87;;;;;;;19.73;44.47;99548.77;1795152;79;21127;-69
2021/04/08 11:56:44;;;;;;;3.95;3.25;;;;;;;19.95;44.36;99546.84;1779340;79;21110;-71
2021/04/08 11:59:19;;;;;;;3.40;2.55;;;;;;;20.28;44.10;99544.91;1798100;79;22034;-68